Time;durP1;ratioP1;P1;durP2;ratioP2;P2;SDS_P1;SDS_P2;PMS_P1;PMS_P2;Temp;Humidity;BMP_temperature;BMP_pressure;BME280_temperature;BME280_humidity;BME280_pressure;Samples;Min_cycle;Max_cycle;Signal;HPM_P1;HPM_P2
2022/12/21 00:01:15;;;;;;;49.20;21.17;;;;;;;1.58;99.31;99878.88;4176926;28;23221;-64
2022/12/21 00:03:42;;;;;;;56.27;21.40;;;;;;;1.54;99.05;99880.84;4179718;28;20253;-64
2022/12/21 00:06:09;;;;;;;54.27;21.03;;;;;;;1.44;100.00;99877.16;4183129;28;20518;-66
2022/12/21 00:08:44;;;;;;;55.17;21.30;;;;;;;1.48;100.00;99868.16;4183267;28;20247;-63
2022/12/21 00:11:11;;;;;;;58.23;21.23;;;;;;;1.45;99.45;99863.09;4179883;28;20965;-65
2022/12/21 00:13:38;;;;;;;51.17;21.43;;;;;;;1.45;99.93;99857.84;4194096;28;20242;-66
2022/12/21 00:16:08;;;;;;;55.87;23.03;;;;;;;1.43;99.93;99854.50;4180672;28;25596;-66
2022/12/21 00:18:36;;;;;;;52.93;21.03;;;;;;;1.47;99.44;99863.81;4178750;28;20247;-67
2022/12/21 00:21:11;;;;;;;53.50;21.83;;;;;;;1.35;100.00;99865.47;4182392;28;20245;-65
2022/12/21 00:23:37;;;;;;;55.43;21.60;;;;;;;1.35;100.00;99867.25;4175276;28;20291;-64
2022/12/21 00:26:05;;;;;;;52.10;21.27;;;;;;;1.35;100.00;99873.34;4180012;28;20231;-65
2022/12/21 00:28:32;;;;;;;51.37;21.87;;;;;;;1.19;100.00;99863.00;4180245;28;20240;-63
2022/12/21 00:31:06;;;;;;;51.70;22.23;;;;;;;1.30;100.00;99871.97;4183527;28;20741;-64
2022/12/21 00:33:33;;;;;;;55.87;23.40;;;;;;;1.24;100.00;99866.19;4182950;28;20234;-67
2022/12/21 00:36:00;;;;;;;56.63;22.40;;;;;;;1.26;100.00;99868.69;4178396;28;21854;-65
2022/12/21 00:38:26;;;;;;;55.90;21.97;;;;;;;1.38;100.00;99867.06;4174452;28;21827;-64
2022/12/21 00:41:02;;;;;;;54.43;22.10;;;;;;;1.26;100.00;99866.94;4179421;28;20240;-63
2022/12/21 00:43:33;;;;;;;53.87;21.70;;;;;;;1.29;100.00;99867.66;4174151;28;20250;-64
2022/12/21 00:46:00;;;;;;;55.73;22.07;;;;;;;1.24;100.00;99870.56;4174188;28;20240;-64
2022/12/21 00:48:31;;;;;;;52.77;21.60;;;;;;;1.33;100.00;99877.00;4180908;28;20239;-65
2022/12/21 00:51:08;;;;;;;52.47;21.90;;;;;;;1.32;100.00;99870.09;4180986;28;21640;-65
2022/12/21 00:53:35;;;;;;;42.97;19.67;;;;;;;1.32;99.79;99867.47;4183344;28;20278;-67
2022/12/21 00:56:03;;;;;;;49.90;21.73;;;;;;;1.33;99.96;99866.53;4174609;28;20363;-67
2022/12/21 00:58:31;;;;;;;54.53;20.27;;;;;;;1.27;99.81;99867.78;4178922;28;20313;-67
2022/12/21 01:00:59;;;;;;;49.67;20.83;;;;;;;1.34;99.61;99861.19;4185758;28;20230;-64
2022/12/21 01:03:26;;;;;;;48.40;20.83;;;;;;;1.27;99.39;99859.91;4156007;28;20464;-65
2022/12/21 01:05:54;;;;;;;45.63;20.43;;;;;;;1.35;98.57;99851.53;4188563;28;20225;-65
2022/12/21 01:08:22;;;;;;;49.27;21.23;;;;;;;1.43;98.13;99851.88;4177776;28;22118;-64
2022/12/21 01:10:49;;;;;;;45.63;19.57;;;;;;;1.43;97.35;99839.63;4167794;28;21192;-63
2022/12/21 01:13:16;;;;;;;46.53;18.93;;;;;;;1.40;97.75;99823.22;4175852;28;20234;-63
2022/12/21 01:15:45;;;;;;;45.30;19.50;;;;;;;1.41;98.17;99836.25;4184585;28;20396;-64
2022/12/21 01:18:13;;;;;;;52.63;20.77;;;;;;;1.41;97.28;99848.53;4177887;28;20313;-63
2022/12/21 01:20:45;;;;;;;47.50;20.17;;;;;;;1.41;97.30;99859.00;4174552;28;20264;-64
2022/12/21 01:23:12;;;;;;;48.33;19.63;;;;;;;1.54;96.75;99861.66;4181850;28;21275;-65
2022/12/21 01:25:38;;;;;;;46.63;19.50;;;;;;;1.49;97.37;99869.81;4183419;28;20234;-64
2022/12/21 01:28:05;;;;;;;50.37;19.93;;;;;;;1.57;96.80;99880.66;4172816;28;20686;-65
2022/12/21 01:30:31;;;;;;;46.07;19.47;;;;;;;1.59;96.19;99886.66;4190726;28;21234;-64
2022/12/21 01:32:58;;;;;;;48.83;19.77;;;;;;;1.59;96.02;99876.16;4183624;28;20929;-67
2022/12/21 01:35:25;;;;;;;54.43;19.50;;;;;;;1.52;95.99;99872.22;4176310;28;20294;-65
2022/12/21 01:37:51;;;;;;;45.87;18.63;;;;;;;1.52;96.57;99866.97;4182178;28;20233;-64
2022/12/21 01:40:18;;;;;;;46.87;19.17;;;;;;;1.45;96.06;99857.84;4179698;28;22442;-63
2022/12/21 01:42:45;;;;;;;47.13;19.90;;;;;;;1.48;96.95;99852.41;4174423;28;20373;-63
2022/12/21 01:45:31;;;;;;;49.43;19.93;;;;;;;1.55;95.65;99832.72;4177030;28;20261;-64
2022/12/21 01:48:01;;;;;;;50.83;20.20;;;;;;;1.51;95.91;99831.22;4184544;28;21781;-64
2022/12/21 01:50:28;;;;;;;46.87;18.57;;;;;;;1.45;96.08;99811.53;4186058;28;21284;-66
2022/12/21 01:52:55;;;;;;;46.23;19.07;;;;;;;1.44;96.75;99809.00;4179075;28;23629;-65
2022/12/21 01:55:22;;;;;;;46.63;18.07;;;;;;;1.40;96.66;99799.63;4180033;28;20308;-65
2022/12/21 01:57:48;;;;;;;49.23;18.67;;;;;;;1.50;96.34;99792.84;4164792;28;24006;-66
2022/12/21 02:00:15;;;;;;;44.90;18.40;;;;;;;1.47;96.41;99798.28;4172305;28;20505;-65
2022/12/21 02:02:51;;;;;;;46.73;19.10;;;;;;;1.53;96.34;99791.81;4184772;28;21707;-65
2022/12/21 02:05:25;;;;;;;44.77;18.93;;;;;;;1.46;96.39;99786.13;4186480;28;20221;-64
2022/12/21 02:07:53;;;;;;;48.20;18.40;;;;;;;1.45;96.72;99787.06;4172636;28;20245;-65
2022/12/21 02:10:20;;;;;;;45.50;19.20;;;;;;;1.42;96.92;99788.09;4180806;28;20698;-64
2022/12/21 02:12:47;;;;;;;47.63;20.17;;;;;;;1.44;97.11;99780.16;4195500;28;22924;-64
2022/12/21 02:15:14;;;;;;;47.73;19.63;;;;;;;1.47;96.96;99767.69;4174893;28;21576;-64
2022/12/21 02:17:54;;;;;;;43.80;18.17;;;;;;;1.46;96.50;99762.53;4179180;28;21655;-64
2022/12/21 02:20:59;;;;;;;45.47;18.77;;;;;;;1.39;96.82;99769.13;4181080;28;20288;-64
2022/12/21 02:23:50;;;;;;;47.70;19.03;;;;;;;1.28;97.52;99780.31;4172755;28;20662;-63
2022/12/21 02:26:31;;;;;;;43.30;18.07;;;;;;;1.34;97.87;99803.53;4195161;28;20394;-66
2022/12/21 02:29:33;;;;;;;47.50;19.10;;;;;;;1.34;98.18;99800.06;4180933;28;23160;-65
2022/12/21 02:32:17;;;;;;;42.90;18.93;;;;;;;1.28;97.71;99801.28;4130144;29;20250;-64
2022/12/21 02:35:00;;;;;;;45.63;18.67;;;;;;;1.31;98.13;99802.88;4181578;28;21579;-66
2022/12/21 02:37:37;;;;;;;48.83;18.67;;;;;;;1.41;97.79;99783.00;4177895;28;20778;-63
2022/12/21 02:40:18;;;;;;;44.03;18.87;;;;;;;1.35;97.83;99788.63;4179331;28;22338;-63
2022/12/21 02:46:22;;;;;;;45.33;18.53;;;;;;;1.30;97.74;99767.97;4196603;28;20242;-64
2022/12/21 02:48:58;;;;;;;48.33;19.10;;;;;;;1.29;97.63;99789.88;4172504;28;20240;-65
2022/12/21 02:51:49;;;;;;;45.07;18.80;;;;;;;1.36;98.35;99806.03;4195488;28;20311;-64
2022/12/21 02:54:16;;;;;;;44.30;18.37;;;;;;;1.47;97.53;99811.41;4209285;28;20245;-63
2022/12/21 02:56:43;;;;;;;43.73;18.50;;;;;;;1.50;96.94;99819.06;4185056;28;20237;-64
2022/12/21 02:59:12;;;;;;;45.13;18.37;;;;;;;1.46;97.17;99810.56;4191087;28;20345;-64
2022/12/21 03:02:16;;;;;;;43.50;19.00;;;;;;;1.47;96.56;99808.78;4203651;28;21654;-63
2022/12/21 03:04:50;;;;;;;41.47;18.10;;;;;;;1.54;96.52;99803.97;4209875;28;20236;-68
2022/12/21 03:07:16;;;;;;;46.20;18.90;;;;;;;1.47;97.17;99793.91;4197299;28;20233;-65
2022/12/21 03:09:45;;;;;;;46.33;19.63;;;;;;;1.37;97.49;99789.38;4199669;28;21640;-64
2022/12/21 03:12:42;;;;;;;47.03;19.07;;;;;;;1.43;97.34;99773.25;4191585;28;21909;-65
2022/12/21 03:15:23;;;;;;;47.87;19.43;;;;;;;1.43;97.36;99786.34;4204367;28;20245;-64
2022/12/21 03:17:56;;;;;;;46.13;19.37;;;;;;;1.45;97.06;99787.06;4210220;28;20248;-67
2022/12/21 03:20:49;;;;;;;47.07;19.67;;;;;;;1.51;96.61;99794.53;4197218;28;20649;-66
2022/12/21 03:23:23;;;;;;;47.57;19.77;;;;;;;1.44;96.64;99788.84;4201628;28;20240;-65
2022/12/21 03:25:58;;;;;;;47.30;19.13;;;;;;;1.34;96.85;99786.97;4192570;28;20731;-64
2022/12/21 03:28:29;;;;;;;49.23;19.07;;;;;;;1.33;97.47;99791.34;4193490;28;20290;-65
2022/12/21 03:30:59;;;;;;;44.87;19.07;;;;;;;1.40;96.67;99789.16;4192601;28;23762;-65
2022/12/21 03:33:28;;;;;;;45.60;18.73;;;;;;;1.44;96.55;99794.09;4208809;28;20314;-66
2022/12/21 03:35:59;;;;;;;59.50;19.40;;;;;;;1.47;96.87;99787.78;4187625;28;20229;-65
2022/12/21 03:38:35;;;;;;;49.67;19.53;;;;;;;1.44;97.06;99788.00;4228514;28;20220;-65
2022/12/21 03:41:08;;;;;;;47.83;20.70;;;;;;;1.46;96.47;99786.13;4202697;28;20630;-61
2022/12/21 03:43:35;;;;;;;50.17;19.33;;;;;;;1.40;96.84;99779.50;4190117;28;20297;-63
2022/12/21 03:46:21;;;;;;;48.50;19.13;;;;;;;1.38;96.89;99767.44;4172590;28;20753;-65
2022/12/21 03:48:57;;;;;;;46.93;19.47;;;;;;;1.31;97.73;99742.59;4194254;28;20241;-64
2022/12/21 03:51:38;;;;;;;51.53;19.00;;;;;;;1.36;96.48;99732.63;4185666;28;20936;-64
2022/12/21 03:54:16;;;;;;;51.13;19.37;;;;;;;1.39;96.62;99748.16;4204796;28;21690;-63
2022/12/21 03:56:42;;;;;;;44.60;18.43;;;;;;;1.34;97.06;99745.03;4192154;28;20397;-64
2022/12/21 03:59:12;;;;;;;44.10;19.50;;;;;;;1.43;96.67;99726.06;4207974;28;20301;-66
2022/12/21 04:02:05;;;;;;;50.33;20.20;;;;;;;1.55;95.49;99709.47;4202911;28;20610;-65
2022/12/21 04:04:34;;;;;;;47.30;19.53;;;;;;;1.53;95.79;99708.75;4198354;28;20357;-64
2022/12/21 04:07:03;;;;;;;49.00;19.97;;;;;;;1.52;95.50;99700.97;4192420;28;20416;-65
2022/12/21 04:09:31;;;;;;;48.77;19.13;;;;;;;1.51;95.64;99675.72;4199991;28;20240;-63
2022/12/21 04:14:50;;;;;;;50.37;19.10;;;;;;;1.45;94.98;99696.16;4201709;28;20273;-66
2022/12/21 04:17:16;;;;;;;44.83;18.13;;;;;;;1.52;95.47;99699.19;4189285;28;20236;-64
2022/12/21 04:19:58;;;;;;;51.13;20.43;;;;;;;1.51;94.64;99709.78;4206763;28;23633;-66
2022/12/21 04:28:07;;;;;;;51.03;20.47;;;;;;;1.24;96.95;99719.44;4201935;28;20303;-66
2022/12/21 04:30:55;;;;;;;43.37;20.27;;;;;;;1.23;97.17;99717.72;4195417;28;20235;-63
2022/12/21 04:33:22;;;;;;;47.73;20.20;;;;;;;1.15;97.73;99727.91;4187929;28;21563;-66
2022/12/21 04:38:40;;;;;;;49.93;20.50;;;;;;;1.14;97.90;99730.63;4198097;28;21629;-63
2022/12/21 04:41:06;;;;;;;52.70;21.33;;;;;;;1.13;97.87;99726.34;4195362;28;20255;-67
2022/12/21 04:43:37;;;;;;;48.30;20.23;;;;;;;1.14;98.16;99730.63;4191170;28;25840;-64
2022/12/21 04:46:09;;;;;;;48.90;20.57;;;;;;;1.22;97.43;99725.72;4194059;28;20225;-65
2022/12/21 04:48:36;;;;;;;49.40;20.77;;;;;;;1.12;97.99;99719.41;4193963;28;20696;-64
2022/12/21 04:51:07;;;;;;;59.63;21.73;;;;;;;1.12;98.40;99719.41;4188632;28;20249;-64
2022/12/21 04:53:34;;;;;;;54.07;20.37;;;;;;;1.19;98.43;99716.25;4194441;28;20295;-64
2022/12/21 04:56:01;;;;;;;54.00;20.97;;;;;;;1.20;97.18;99702.22;4151099;28;20230;-65
2022/12/21 04:58:28;;;;;;;51.13;21.33;;;;;;;1.29;96.57;99710.41;4170605;28;20509;-67
2022/12/21 05:00:54;;;;;;;54.67;21.03;;;;;;;1.14;97.96;99707.03;4175737;28;20693;-64
2022/12/21 05:03:21;;;;;;;53.47;21.43;;;;;;;1.16;97.78;99706.00;4170898;28;20266;-62
2022/12/21 05:05:47;;;;;;;49.93;21.53;;;;;;;1.13;98.08;99705.38;4176137;28;20289;-65
2022/12/21 05:08:14;;;;;;;53.70;22.47;;;;;;;1.10;98.27;99695.06;4175590;28;20424;-65
2022/12/21 05:10:48;;;;;;;50.57;20.53;;;;;;;1.23;98.11;99680.22;4174048;28;20347;-65
2022/12/21 05:13:14;;;;;;;51.30;20.77;;;;;;;1.13;97.32;99679.16;4168532;28;20424;-63
2022/12/21 05:15:41;;;;;;;55.83;21.40;;;;;;;0.98;98.81;99688.88;4181630;28;21204;-63
2022/12/21 05:18:08;;;;;;;49.47;21.57;;;;;;;1.08;98.15;99674.25;4183104;28;20228;-64
2022/12/21 05:20:34;;;;;;;50.33;21.33;;;;;;;1.18;97.52;99662.19;4176620;28;20380;-65
2022/12/21 05:23:01;;;;;;;51.30;21.93;;;;;;;1.08;98.00;99674.25;4169745;28;20256;-64
2022/12/21 05:25:27;;;;;;;49.70;21.50;;;;;;;1.10;97.96;99667.13;4178260;28;20233;-68
2022/12/21 05:27:54;;;;;;;54.23;22.00;;;;;;;1.03;97.77;99668.44;4170948;28;20632;-63
2022/12/21 05:30:20;;;;;;;53.60;21.50;;;;;;;1.06;98.36;99663.03;4169217;28;20328;-64
2022/12/21 05:32:47;;;;;;;51.73;22.43;;;;;;;1.09;97.10;99651.50;4168349;28;20334;-63
2022/12/21 05:35:13;;;;;;;51.97;20.93;;;;;;;1.19;97.60;99674.31;4179063;28;20225;-65
2022/12/21 05:37:42;;;;;;;53.73;21.70;;;;;;;1.08;97.44;99684.72;4160529;28;20531;-62
2022/12/21 05:40:09;;;;;;;57.97;21.37;;;;;;;1.15;97.79;99677.28;4177032;28;20304;-66
2022/12/21 05:42:36;;;;;;;58.77;22.43;;;;;;;1.24;96.93;99661.78;4183480;28;20233;-66
2022/12/21 05:45:03;;;;;;;59.90;22.93;;;;;;;1.05;97.81;99677.91;4187581;28;22258;-65
2022/12/21 05:47:29;;;;;;;57.20;21.17;;;;;;;1.08;98.13;99691.72;4164006;28;26480;-67
2022/12/21 05:49:56;;;;;;;51.90;21.17;;;;;;;1.19;98.07;99705.78;4182092;28;20234;-64
2022/12/21 05:52:23;;;;;;;55.27;22.43;;;;;;;1.12;97.34;99707.13;4179164;28;20318;-68
2022/12/21 05:54:50;;;;;;;52.87;22.73;;;;;;;1.19;97.57;99721.50;4189131;28;20702;-65
2022/12/21 05:57:16;;;;;;;58.37;22.97;;;;;;;1.22;96.85;99715.25;4180976;28;20240;-68
2022/12/21 05:59:43;;;;;;;52.53;22.77;;;;;;;1.16;97.80;99721.72;4181103;28;21210;-64
2022/12/21 06:02:09;;;;;;;55.47;22.30;;;;;;;1.16;97.56;99713.84;4186440;28;20227;-66
2022/12/21 06:04:36;;;;;;;56.87;22.77;;;;;;;1.11;98.07;99710.72;4187132;28;20237;-65
2022/12/21 06:07:02;;;;;;;61.17;23.40;;;;;;;1.02;98.22;99727.88;4183781;28;20234;-66
2022/12/21 06:09:29;;;;;;;55.80;22.90;;;;;;;1.11;98.79;99731.66;4172313;28;21278;-65
2022/12/21 06:11:56;;;;;;;57.23;22.40;;;;;;;1.15;98.23;99725.28;4183359;28;21340;-63
2022/12/21 06:14:22;;;;;;;54.97;22.00;;;;;;;1.15;97.64;99722.66;4220864;28;20236;-65
2022/12/21 06:16:49;;;;;;;57.33;22.47;;;;;;;1.20;97.80;99717.13;4179616;28;21212;-68
2022/12/21 06:19:16;;;;;;;56.83;23.20;;;;;;;1.14;97.58;99718.34;4188282;28;20312;-63
2022/12/21 06:21:42;;;;;;;53.10;20.67;;;;;;;1.24;97.52;99727.28;4186270;28;21216;-66
2022/12/21 06:24:09;;;;;;;54.87;21.47;;;;;;;1.30;97.15;99719.97;4198531;28;20236;-69
2022/12/21 06:26:35;;;;;;;49.63;20.13;;;;;;;1.15;97.31;99725.28;4190985;28;20655;-69
2022/12/21 06:29:04;;;;;;;56.90;22.00;;;;;;;1.17;97.29;99733.03;4185043;28;20426;-69
2022/12/21 06:31:32;;;;;;;51.07;20.90;;;;;;;1.21;97.15;99730.09;4187013;28;20233;-68
2022/12/21 06:33:59;;;;;;;53.67;21.17;;;;;;;1.33;96.75;99735.47;4207047;28;20784;-65
2022/12/21 06:36:25;;;;;;;52.23;21.57;;;;;;;1.26;96.47;99743.75;4194795;28;20232;-68
2022/12/21 06:38:52;;;;;;;62.70;21.73;;;;;;;1.22;97.58;99742.28;4202935;28;20231;-68
2022/12/21 06:41:19;;;;;;;58.13;22.07;;;;;;;1.22;97.12;99730.97;4185041;28;20248;-68
2022/12/21 06:43:45;;;;;;;52.27;20.87;;;;;;;1.30;97.29;99733.88;4189946;28;21718;-66
2022/12/21 06:46:14;;;;;;;56.53;21.87;;;;;;;1.38;96.66;99734.22;4193476;28;20892;-70
2022/12/21 06:48:41;;;;;;;51.17;21.23;;;;;;;1.31;96.85;99737.34;4197777;28;20348;-68
2022/12/21 06:51:11;;;;;;;50.60;20.23;;;;;;;1.30;97.32;99733.06;4181862;28;21601;-68
2022/12/21 06:53:40;;;;;;;50.20;20.77;;;;;;;1.25;96.90;99736.81;4195381;28;20305;-69
2022/12/21 06:56:11;;;;;;;51.87;20.80;;;;;;;1.34;96.24;99739.78;4194494;28;21903;-71
2022/12/21 06:58:45;;;;;;;48.67;19.80;;;;;;;1.37;95.88;99727.28;4203062;28;22544;-69
2022/12/21 07:01:15;;;;;;;54.80;22.07;;;;;;;1.30;96.91;99731.28;4200781;28;25277;-69
2022/12/21 07:03:42;;;;;;;51.30;19.50;;;;;;;1.38;96.57;99720.25;4226333;28;25704;-70
2022/12/21 07:06:11;;;;;;;52.73;21.10;;;;;;;1.35;96.73;99720.47;4204711;28;22457;-71
2022/12/21 07:08:38;;;;;;;59.47;21.43;;;;;;;1.34;96.89;99711.78;4189104;28;20377;-69
2022/12/21 07:11:07;;;;;;;52.27;21.10;;;;;;;1.33;96.39;99717.94;4196245;28;20300;-70
2022/12/21 07:13:35;;;;;;;55.33;21.80;;;;;;;1.41;96.19;99714.84;4193845;28;21710;-70
2022/12/21 07:16:02;;;;;;;52.03;19.87;;;;;;;1.38;95.94;99704.53;4218184;28;20633;-70
2022/12/21 07:18:29;;;;;;;51.50;20.17;;;;;;;1.52;95.22;99701.81;4182679;28;20233;-69
2022/12/21 07:20:59;;;;;;;44.63;19.67;;;;;;;1.39;95.64;99708.84;4197707;28;20286;-70
2022/12/21 07:23:26;;;;;;;55.23;21.20;;;;;;;1.48;95.44;99689.88;4180127;28;22525;-70
2022/12/21 07:25:53;;;;;;;50.60;20.70;;;;;;;1.56;94.91;99690.16;4198613;28;20391;-71
2022/12/21 07:28:21;;;;;;;59.47;21.57;;;;;;;1.47;94.46;99688.19;4281713;28;20344;-70
2022/12/21 07:30:48;;;;;;;45.60;19.87;;;;;;;1.46;94.63;99691.75;4302975;28;21304;-73
2022/12/21 07:33:15;;;;;;;48.03;21.23;;;;;;;1.57;94.61;99688.38;4234663;28;23187;-69
2022/12/21 07:35:42;;;;;;;49.30;20.87;;;;;;;1.66;94.14;99687.75;4258173;28;20233;-72
2022/12/21 07:38:09;;;;;;;54.10;21.23;;;;;;;1.73;93.37;99694.22;4275255;28;20738;-69
2022/12/21 07:40:40;;;;;;;55.33;19.30;;;;;;;1.66;93.79;99698.22;4320783;28;20239;-69
2022/12/21 07:43:08;;;;;;;53.60;19.70;;;;;;;1.62;93.47;99707.28;4210865;28;20239;-70
2022/12/21 07:45:38;;;;;;;52.13;20.10;;;;;;;1.68;93.31;99712.91;4226110;28;20252;-67
2022/12/21 07:48:05;;;;;;;53.17;20.57;;;;;;;1.69;93.82;99708.53;4203957;28;20464;-68
2022/12/21 07:50:32;;;;;;;50.23;19.07;;;;;;;1.66;93.86;99708.72;4177391;28;20472;-68
2022/12/21 07:52:59;;;;;;;54.33;20.30;;;;;;;1.71;93.60;99711.88;4209315;28;20601;-68
2022/12/21 07:55:25;;;;;;;48.50;19.23;;;;;;;1.69;93.25;99703.28;4214358;28;20368;-69
2022/12/21 07:57:52;;;;;;;47.73;19.23;;;;;;;1.76;92.55;99703.69;4213376;28;20248;-68
2022/12/21 08:00:22;;;;;;;49.53;19.70;;;;;;;1.71;92.42;99705.78;4199069;28;21827;-71
2022/12/21 08:02:50;;;;;;;47.03;19.83;;;;;;;1.72;92.90;99689.94;4190904;28;20291;-70
2022/12/21 08:05:18;;;;;;;49.37;19.83;;;;;;;1.76;92.45;99693.22;4205667;28;20239;-70
2022/12/21 08:07:46;;;;;;;46.60;19.10;;;;;;;1.73;92.63;99678.50;4217142;28;21707;-70
2022/12/21 08:10:12;;;;;;;49.63;19.93;;;;;;;1.65;93.23;99692.16;4205185;28;20278;-69
2022/12/21 08:12:39;;;;;;;48.33;18.93;;;;;;;1.72;93.30;99692.56;4196493;28;20694;-69
2022/12/21 08:15:06;;;;;;;50.00;19.53;;;;;;;1.75;92.85;99688.88;4202143;28;20382;-69
2022/12/21 08:17:33;;;;;;;54.43;20.40;;;;;;;1.87;92.29;99681.03;4188261;28;22874;-71
2022/12/21 08:19:59;;;;;;;50.53;19.50;;;;;;;1.95;92.30;99677.84;4196306;28;22217;-73
2022/12/21 08:22:26;;;;;;;51.80;19.90;;;;;;;1.98;91.89;99677.63;4191448;28;23035;-71
2022/12/21 08:24:53;;;;;;;47.87;20.07;;;;;;;1.97;91.30;99678.56;4184561;28;20712;-68
2022/12/21 08:27:19;;;;;;;51.40;19.87;;;;;;;2.04;92.12;99677.19;4186138;28;20669;-66
2022/12/21 08:32:24;;;;;;;51.63;19.60;;;;;;;2.11;91.46;99674.97;4297073;27;22477;-68
2022/12/21 08:34:51;;;;;;;49.17;19.47;;;;;;;2.03;91.92;99672.88;4255885;28;21173;-69
2022/12/21 08:37:19;;;;;;;52.97;19.77;;;;;;;2.03;91.51;99675.50;4250103;28;20483;-72
2022/12/21 08:39:45;;;;;;;49.67;19.37;;;;;;;2.09;91.48;99685.56;4254890;28;20927;-75
2022/12/21 08:42:13;;;;;;;55.40;19.97;;;;;;;2.16;91.08;99683.34;4264124;28;21332;-73
2022/12/21 08:44:39;;;;;;;46.03;18.60;;;;;;;2.27;91.04;99680.78;4221843;28;20226;-70
2022/12/21 08:47:06;;;;;;;53.07;19.97;;;;;;;2.39;89.96;99684.31;4235457;28;20243;-68
2022/12/21 08:49:33;;;;;;;48.17;19.00;;;;;;;2.43;89.70;99691.00;4255553;28;21533;-71
2022/12/21 08:52:00;;;;;;;48.53;19.87;;;;;;;2.34;88.98;99681.16;4231569;28;20316;-71
2022/12/21 08:54:26;;;;;;;44.97;19.23;;;;;;;2.31;89.53;99676.16;4231420;28;20270;-70
2022/12/21 08:56:53;;;;;;;44.90;19.03;;;;;;;2.35;89.63;99679.41;4231918;28;20235;-71
2022/12/21 08:59:19;;;;;;;49.97;20.00;;;;;;;2.42;89.40;99678.00;4233849;28;20402;-72
2022/12/21 09:01:47;;;;;;;50.47;19.10;;;;;;;2.44;89.04;99668.22;4254024;28;20243;-70
2022/12/21 09:04:13;;;;;;;44.63;19.40;;;;;;;2.47;89.50;99668.84;4219091;28;20313;-69
2022/12/21 09:06:40;;;;;;;46.70;19.53;;;;;;;2.54;89.07;99669.22;4237767;28;20311;-70
2022/12/21 09:09:08;;;;;;;45.57;19.07;;;;;;;2.62;88.47;99663.41;4244193;28;20736;-71
2022/12/21 09:11:35;;;;;;;46.63;19.30;;;;;;;2.66;88.03;99662.22;4239595;28;20663;-73
2022/12/21 09:14:15;;;;;;;44.70;18.27;;;;;;;2.73;88.16;99658.19;4239239;28;20281;-72
2022/12/21 09:16:41;;;;;;;47.60;17.70;;;;;;;2.86;87.36;99658.13;4241761;28;22266;-68
2022/12/21 09:19:08;;;;;;;42.90;19.70;;;;;;;2.86;87.34;99658.13;4243020;28;21368;-72
2022/12/21 09:21:35;;;;;;;46.77;19.30;;;;;;;2.81;87.08;99650.59;4254663;28;20246;-71
2022/12/21 09:24:01;;;;;;;48.13;20.20;;;;;;;2.86;87.72;99645.81;4251448;28;20228;-70
2022/12/21 09:26:28;;;;;;;44.10;18.17;;;;;;;2.89;86.99;99647.38;4241721;28;20236;-70
2022/12/21 09:28:54;;;;;;;48.67;20.13;;;;;;;2.89;86.55;99639.50;4241466;28;20286;-69
2022/12/21 09:31:22;;;;;;;48.33;20.20;;;;;;;2.79;87.18;99646.41;4239951;28;21073;-69
2022/12/21 09:33:53;;;;;;;43.17;17.53;;;;;;;2.83;87.38;99653.91;4246506;28;20653;-73
2022/12/21 09:36:20;;;;;;;43.80;18.67;;;;;;;2.88;86.20;99651.81;4236381;28;20250;-70
2022/12/21 09:38:48;;;;;;;43.93;18.33;;;;;;;2.95;85.92;99655.66;4280235;28;20232;-70
2022/12/21 09:41:45;;;;;;;47.17;19.00;;;;;;;2.96;86.31;99659.94;4269915;28;20341;-70
2022/12/21 09:44:30;;;;;;;43.07;18.07;;;;;;;2.91;86.39;99654.19;4262174;28;21423;-71
2022/12/21 09:47:02;;;;;;;51.43;18.97;;;;;;;3.03;86.55;99655.06;4267906;28;20227;-73
2022/12/21 09:49:43;;;;;;;48.50;19.10;;;;;;;3.05;86.60;99663.66;4250097;28;20907;-69
2022/12/21 09:52:18;;;;;;;48.57;20.97;;;;;;;3.11;85.71;99657.09;4239198;28;20298;-71
2022/12/21 09:54:56;;;;;;;48.93;19.50;;;;;;;3.14;86.11;99646.38;4219246;28;20482;-71
2022/12/21 09:57:28;;;;;;;45.37;19.57;;;;;;;3.13;86.49;99649.94;4209278;28;20303;-69
2022/12/21 09:59:55;;;;;;;45.30;19.43;;;;;;;3.15;85.81;99640.16;4220791;28;20255;-72
2022/12/21 10:02:42;;;;;;;44.63;18.07;;;;;;;3.26;85.59;99642.78;4239928;28;20228;-71
2022/12/21 10:05:21;;;;;;;45.77;19.57;;;;;;;3.28;85.16;99646.16;4244295;28;20241;-70
2022/12/21 10:08:14;;;;;;;46.13;18.87;;;;;;;3.75;84.14;99641.59;4259457;28;20232;-71
2022/12/21 10:10:44;;;;;;;43.00;18.77;;;;;;;4.92;80.21;99647.94;4266591;28;20250;-70
2022/12/21 10:13:25;;;;;;;47.60;18.97;;;;;;;5.46;74.92;99652.16;4267176;28;20503;-71
2022/12/21 10:16:13;;;;;;;41.00;17.50;;;;;;;5.38;74.70;99654.59;4248977;28;20231;-70
2022/12/21 10:18:55;;;;;;;46.13;18.90;;;;;;;4.80;76.85;99643.69;4232294;28;20281;-70
2022/12/21 10:21:53;;;;;;;52.00;20.80;;;;;;;4.46;79.11;99643.84;4217295;28;21829;-69
2022/12/21 10:24:36;;;;;;;44.60;18.57;;;;;;;4.25;79.47;99642.94;4218444;28;20235;-71
2022/12/21 10:27:37;;;;;;;43.47;18.63;;;;;;;4.06;80.79;99639.16;4234181;28;25342;-74
2022/12/21 10:30:13;;;;;;;44.30;18.73;;;;;;;4.79;78.98;99636.75;4214357;28;20243;-74
2022/12/21 10:32:41;;;;;;;45.60;19.03;;;;;;;5.82;74.03;99644.63;4241570;28;20764;-72
2022/12/21 10:35:29;;;;;;;45.83;18.73;;;;;;;7.13;68.25;99656.75;4234017;28;20756;-70
2022/12/21 10:37:59;;;;;;;51.63;18.10;;;;;;;8.24;62.77;99661.19;4249877;28;20253;-74
2022/12/21 10:40:31;;;;;;;45.00;17.53;;;;;;;8.48;59.60;99657.16;4258366;28;20239;-72
2022/12/21 10:42:58;;;;;;;42.60;18.93;;;;;;;8.16;59.91;99653.13;4202106;28;20311;-70
2022/12/21 10:45:25;;;;;;;42.77;18.93;;;;;;;7.54;62.18;99647.59;4240112;28;21449;-71
2022/12/21 10:47:53;;;;;;;43.83;17.60;;;;;;;7.51;62.55;99642.56;4234024;28;20244;-70
2022/12/21 10:50:32;;;;;;;46.93;18.37;;;;;;;8.74;58.39;99656.41;4224430;28;20320;-69
2022/12/21 10:53:01;;;;;;;45.37;18.13;;;;;;;9.75;54.78;99655.91;4255274;28;21628;-74
2022/12/21 10:55:35;;;;;;;46.70;19.27;;;;;;;10.00;52.47;99665.66;4256406;28;26346;-75
2022/12/21 10:58:02;;;;;;;43.47;17.77;;;;;;;9.39;53.97;99656.03;4246772;28;20439;-75
2022/12/21 11:00:39;;;;;;;39.30;17.30;;;;;;;9.57;53.18;99664.78;4264609;28;20422;-72
2022/12/21 11:03:34;;;;;;;45.00;20.10;;;;;;;9.56;52.88;99663.13;4257022;28;24975;-70
2022/12/21 11:06:19;;;;;;;45.67;19.43;;;;;;;8.77;54.59;99656.91;4262816;28;20361;-74
2022/12/21 11:08:52;;;;;;;46.43;19.93;;;;;;;7.78;59.28;99646.22;4304557;28;20938;-72
2022/12/21 11:11:34;;;;;;;45.67;19.57;;;;;;;7.02;63.34;99644.50;4279622;28;20233;-76
2022/12/21 11:14:02;;;;;;;51.73;20.90;;;;;;;6.42;66.21;99636.75;4224373;28;20275;-71
2022/12/21 11:16:34;;;;;;;49.00;20.23;;;;;;;5.98;69.25;99624.84;4237333;28;20265;-74
2022/12/21 11:19:01;;;;;;;50.87;20.73;;;;;;;5.54;71.67;99616.34;4228348;28;20267;-70
2022/12/21 11:21:44;;;;;;;51.17;20.20;;;;;;;5.17;73.98;99611.59;4228302;28;21724;-73
2022/12/21 11:24:19;;;;;;;46.60;19.20;;;;;;;4.97;75.16;99608.03;4237801;28;20274;-69
2022/12/21 11:26:51;;;;;;;54.47;21.00;;;;;;;4.92;75.76;99618.13;4242969;28;20259;-71
2022/12/21 11:29:34;;;;;;;55.47;20.23;;;;;;;4.94;76.54;99619.66;4232067;28;21541;-77
2022/12/21 11:32:06;;;;;;;47.83;20.00;;;;;;;4.87;77.04;99615.88;4237454;28;20261;-74
2022/12/21 11:34:38;;;;;;;48.47;20.73;;;;;;;4.73;77.87;99609.13;4220895;28;21415;-73
2022/12/21 11:37:19;;;;;;;50.67;19.90;;;;;;;4.60;78.46;99608.44;4246675;28;20234;-77
2022/12/21 11:39:46;;;;;;;51.97;20.20;;;;;;;4.55;78.45;99606.19;4218545;28;21419;-77
2022/12/21 11:42:18;;;;;;;52.47;20.80;;;;;;;4.60;78.50;99606.66;4209926;28;20236;-74
2022/12/21 11:44:45;;;;;;;50.20;20.57;;;;;;;4.56;79.59;99604.38;4197144;28;25558;-75
2022/12/21 11:47:42;;;;;;;47.57;18.90;;;;;;;4.54;79.97;99601.03;4211510;28;20276;-73
2022/12/21 11:50:27;;;;;;;44.77;19.90;;;;;;;4.40;80.94;99602.19;4192135;28;20476;-76
2022/12/21 11:52:56;;;;;;;50.30;19.43;;;;;;;4.50;80.84;99595.22;4221561;28;20255;-70
2022/12/21 11:55:41;;;;;;;51.00;20.57;;;;;;;4.53;79.79;99583.56;4208419;28;21990;-75
2022/12/21 11:58:20;;;;;;;56.27;20.27;;;;;;;4.50;80.18;99594.38;4231266;28;21854;-74
2022/12/21 12:00:58;;;;;;;52.67;18.97;;;;;;;4.35;80.53;99585.91;4246428;28;20238;-77